Time;durP1;ratioP1;P1;durP2;ratioP2;P2;SDS_P1;SDS_P2;PMS_P1;PMS_P2;Temp;Humidity;BMP_temperature;BMP_pressure;BME280_temperature;BME280_humidity;BME280_pressure;Samples;Min_cycle;Max_cycle;Signal;HPM_P1;HPM_P2
2021/11/03 00:00:08;;;;;;;682.60;104.72;;;3.80;99.90;;;;;;4132393;28;20701;-77
2021/11/03 00:02:10;;;;;;;841.58;119.43;;;3.90;99.90;;;;;;4131522;28;20027;-77
2021/11/03 00:04:11;;;;;;;942.72;131.65;;;4.10;99.90;;;;;;4131401;28;20409;-77
2021/11/03 00:06:15;;;;;;;838.88;128.70;;;4.30;99.90;;;;;;4133172;28;20039;-76
2021/11/03 00:08:19;;;;;;;793.47;119.57;;;4.30;99.90;;;;;;4129676;28;20058;-77
2021/11/03 00:10:19;;;;;;;854.25;128.02;;;4.50;99.90;;;;;;4130921;28;20031;-76
2021/11/03 00:12:20;;;;;;;879.15;125.80;;;4.60;99.90;;;;;;4132754;28;20425;-76
2021/11/03 00:14:21;;;;;;;656.97;103.50;;;4.60;99.90;;;;;;4132283;28;20046;-77
2021/11/03 00:16:21;;;;;;;869.88;130.52;;;4.70;99.90;;;;;;4131216;28;20041;-77
2021/11/03 00:18:23;;;;;;;640.03;105.22;;;4.70;99.90;;;;;;4128616;28;20117;-77
2021/11/03 00:20:24;;;;;;;672.17;109.57;;;4.70;99.90;;;;;;4129034;28;20047;-77
2021/11/03 00:22:25;;;;;;;467.25;80.53;;;4.70;99.90;;;;;;4120276;28;20097;-76
2021/11/03 00:24:26;;;;;;;605.20;100.03;;;4.70;99.90;;;;;;4124872;28;20031;-76
2021/11/03 00:26:26;;;;;;;550.50;93.30;;;4.70;99.90;;;;;;4115095;28;20130;-76
2021/11/03 00:28:28;;;;;;;631.53;97.43;;;4.70;99.90;;;;;;4130110;28;20042;-76
2021/11/03 00:30:30;;;;;;;505.73;88.03;;;4.60;99.90;;;;;;4130254;28;20042;-77
2021/11/03 00:32:30;;;;;;;522.00;88.18;;;4.60;99.90;;;;;;4130264;28;20492;-77
2021/11/03 00:34:32;;;;;;;465.38;84.55;;;4.50;99.90;;;;;;4130802;28;20065;-77
2021/11/03 00:36:33;;;;;;;453.30;80.65;;;4.50;99.90;;;;;;4129831;28;20042;-77
2021/11/03 00:38:34;;;;;;;409.35;76.47;;;4.40;99.90;;;;;;4130393;28;20421;-77
2021/11/03 00:40:35;;;;;;;523.30;91.00;;;4.30;99.90;;;;;;4129763;28;20035;-76
2021/11/03 00:42:36;;;;;;;514.42;87.45;;;4.30;99.90;;;;;;4129340;28;20037;-77
2021/11/03 00:44:37;;;;;;;538.78;90.15;;;4.30;99.90;;;;;;4126972;28;20042;-77
2021/11/03 00:46:37;;;;;;;454.15;83.05;;;4.20;99.90;;;;;;4129594;28;20757;-77
2021/11/03 00:48:38;;;;;;;586.15;98.70;;;4.30;99.90;;;;;;4129380;28;20510;-77
2021/11/03 00:50:39;;;;;;;429.77;78.35;;;4.30;99.90;;;;;;4116712;28;20511;-77
2021/11/03 00:52:39;;;;;;;609.67;99.95;;;4.40;99.90;;;;;;4125128;28;20398;-77
2021/11/03 00:54:40;;;;;;;549.75;95.30;;;4.40;99.90;;;;;;4117189;28;20115;-76
2021/11/03 00:56:41;;;;;;;688.70;109.50;;;4.50;99.90;;;;;;4129878;28;20035;-76
2021/11/03 00:58:42;;;;;;;559.22;97.50;;;4.50;99.90;;;;;;4127871;28;20137;-76
2021/11/03 01:00:43;;;;;;;721.05;113.90;;;4.60;99.90;;;;;;4112762;28;20034;-77
2021/11/03 01:02:44;;;;;;;599.92;100.22;;;4.70;99.90;;;;;;4126530;28;20054;-76
2021/11/03 01:04:45;;;;;;;483.25;86.82;;;4.70;99.90;;;;;;4129418;28;20022;-76
2021/11/03 01:06:45;;;;;;;553.67;97.00;;;4.70;99.90;;;;;;4129433;28;20041;-76
2021/11/03 01:08:46;;;;;;;578.45;100.03;;;4.70;99.90;;;;;;4128943;28;20166;-76
2021/11/03 01:10:50;;;;;;;524.95;88.97;;;4.80;99.90;;;;;;4117270;28;20399;-77
2021/11/03 01:12:52;;;;;;;624.15;103.70;;;4.80;99.90;;;;;;4123389;28;20042;-77
2021/11/03 01:14:52;;;;;;;650.90;108.97;;;4.80;99.90;;;;;;4130863;28;20049;-77
2021/11/03 01:16:53;;;;;;;678.70;112.65;;;4.80;99.90;;;;;;4129162;28;20046;-78
2021/11/03 01:18:54;;;;;;;638.33;105.18;;;4.80;99.90;;;;;;4129583;28;20467;-75
2021/11/03 01:20:56;;;;;;;413.83;77.00;;;4.80;99.90;;;;;;4128847;28;20046;-77
2021/11/03 01:22:57;;;;;;;541.83;94.28;;;4.80;99.90;;;;;;4129960;28;20042;-77
2021/11/03 01:24:58;;;;;;;578.20;100.07;;;4.80;99.90;;;;;;4129113;28;20205;-77
2021/11/03 01:26:59;;;;;;;522.58;95.07;;;4.80;99.90;;;;;;4131239;28;20109;-77
2021/11/03 01:28:59;;;;;;;576.33;97.40;;;4.80;99.90;;;;;;4130002;28;20046;-77
2021/11/03 01:31:00;;;;;;;567.75;99.70;;;4.80;99.90;;;;;;4128789;28;20125;-77
2021/11/03 01:33:01;;;;;;;500.90;87.13;;;4.80;99.90;;;;;;4128545;28;20030;-76
2021/11/03 01:35:04;;;;;;;550.70;94.10;;;4.80;99.90;;;;;;4128245;28;20037;-77
2021/11/03 01:37:05;;;;;;;551.05;95.20;;;4.80;99.90;;;;;;4129315;28;20046;-77
2021/11/03 01:39:07;;;;;;;447.25;83.63;;;4.80;99.90;;;;;;4129743;28;20112;-76
2021/11/03 01:41:08;;;;;;;505.10;91.25;;;4.70;99.90;;;;;;4128935;28;20062;-78
2021/11/03 01:43:17;;;;;;;515.17;92.15;;;4.80;99.90;;;;;;4130179;28;20061;-77
2021/11/03 01:45:20;;;;;;;491.88;86.18;;;4.70;99.90;;;;;;4129769;28;20038;-77
2021/11/03 01:47:39;;;;;;;549.45;95.60;;;4.70;99.90;;;;;;4129458;28;20121;-77
2021/11/03 01:49:40;;;;;;;470.20;86.20;;;4.70;99.90;;;;;;4125658;28;20030;-77
2021/11/03 01:51:44;;;;;;;533.22;91.88;;;4.60;99.90;;;;;;4127392;28;20031;-77
2021/11/03 01:53:45;;;;;;;556.10;95.53;;;4.60;99.90;;;;;;4129466;28;20181;-76
2021/11/03 01:55:51;;;;;;;473.50;87.03;;;4.60;99.90;;;;;;4127371;28;20486;-77
2021/11/03 01:57:57;;;;;;;510.70;93.30;;;4.60;99.90;;;;;;4130327;28;20034;-77
2021/11/03 02:00:03;;;;;;;424.30;80.03;;;4.60;99.90;;;;;;4129020;28;20042;-76
2021/11/03 02:02:06;;;;;;;595.53;100.53;;;4.60;99.90;;;;;;4128461;28;20073;-76
2021/11/03 02:04:07;;;;;;;632.27;109.27;;;4.60;99.90;;;;;;4130666;28;20027;-77
2021/11/03 02:06:16;;;;;;;525.70;92.22;;;4.50;99.90;;;;;;4129011;28;20031;-76
2021/11/03 02:08:18;;;;;;;502.60;91.20;;;4.50;99.90;;;;;;4129696;28;20069;-77
2021/11/03 02:10:20;;;;;;;547.55;98.05;;;4.50;99.90;;;;;;4118263;28;20034;-77
2021/11/03 02:12:28;;;;;;;518.03;89.55;;;4.50;99.90;;;;;;4123951;28;20035;-78
2021/11/03 02:14:28;;;;;;;524.85;92.97;;;4.50;99.90;;;;;;4129999;28;20031;-77
2021/11/03 02:16:30;;;;;;;430.42;82.90;;;4.40;99.90;;;;;;4126397;28;20661;-77
2021/11/03 02:18:33;;;;;;;567.05;99.72;;;4.40;99.90;;;;;;4128151;28;20041;-77
2021/11/03 02:20:34;;;;;;;631.15;104.57;;;4.40;99.90;;;;;;4114542;28;20133;-77
2021/11/03 02:22:40;;;;;;;474.33;89.22;;;4.50;99.90;;;;;;4126353;28;20043;-76
2021/11/03 02:24:52;;;;;;;482.85;88.95;;;4.40;99.90;;;;;;4112315;28;20035;-78
2021/11/03 02:26:54;;;;;;;583.60;102.18;;;4.40;99.90;;;;;;4117301;28;20042;-77
2021/11/03 02:28:56;;;;;;;523.83;94.05;;;4.30;99.90;;;;;;4116495;28;20046;-77
2021/11/03 02:30:57;;;;;;;556.05;97.32;;;4.30;99.90;;;;;;4126927;28;20113;-78
2021/11/03 02:33:09;;;;;;;549.47;100.43;;;4.30;99.90;;;;;;4129724;28;20124;-78
2021/11/03 02:35:13;;;;;;;508.35;93.47;;;4.30;99.90;;;;;;4113477;28;20042;-77
2021/11/03 02:37:29;;;;;;;477.17;87.15;;;4.30;99.90;;;;;;4127673;28;20077;-78
2021/11/03 02:39:39;;;;;;;566.35;96.25;;;4.20;99.90;;;;;;4128885;28;20066;-78
2021/11/03 02:41:41;;;;;;;536.85;88.75;;;4.20;99.90;;;;;;4127480;28;20496;-80
2021/11/03 02:43:43;;;;;;;458.88;80.10;;;4.10;99.90;;;;;;4128218;28;20045;-77
2021/11/03 02:45:50;;;;;;;628.27;100.13;;;4.00;99.90;;;;;;4123191;28;20043;-78
2021/11/03 02:47:51;;;;;;;596.05;100.82;;;4.00;99.90;;;;;;4129200;28;20035;-77
2021/11/03 02:49:51;;;;;;;569.25;95.95;;;4.00;99.90;;;;;;4127255;28;20091;-77
2021/11/03 02:51:52;;;;;;;652.45;104.25;;;4.00;99.90;;;;;;4127241;28;20065;-77
2021/11/03 02:53:56;;;;;;;572.70;103.57;;;3.90;99.90;;;;;;4126149;28;20038;-77
2021/11/03 02:55:57;;;;;;;635.00;105.45;;;3.90;99.90;;;;;;4126413;28;20038;-78
2021/11/03 02:57:58;;;;;;;471.35;87.13;;;4.00;99.90;;;;;;4125854;28;20054;-77
2021/11/03 02:59:58;;;;;;;655.80;104.70;;;4.00;99.90;;;;;;4126890;28;20084;-77
2021/11/03 03:02:00;;;;;;;633.30;106.93;;;4.00;99.90;;;;;;4127294;28;20117;-78
2021/11/03 03:04:06;;;;;;;621.63;102.95;;;4.00;99.90;;;;;;4125877;28;20034;-76
2021/11/03 03:06:10;;;;;;;574.70;97.25;;;4.00;99.90;;;;;;4116094;28;20101;-78
2021/11/03 03:08:10;;;;;;;;;;;4.00;99.90;;;;;;4119714;28;20022;-78
2021/11/03 03:10:11;;;;;;;565.63;88.75;;;4.10;99.90;;;;;;4127834;28;20450;-78
2021/11/03 03:12:16;;;;;;;459.67;82.10;;;4.10;99.90;;;;;;4122466;28;20035;-78
2021/11/03 03:14:19;;;;;;;594.83;97.43;;;4.00;99.90;;;;;;4118895;28;20043;-78
2021/11/03 03:16:21;;;;;;;427.08;78.57;;;4.00;99.90;;;;;;4117069;28;20035;-78
2021/11/03 03:18:21;;;;;;;576.42;99.55;;;4.00;99.90;;;;;;4121914;28;20030;-78
2021/11/03 03:20:22;;;;;;;503.98;89.57;;;4.00;99.90;;;;;;4128638;28;20031;-78
2021/11/03 03:22:23;;;;;;;521.42;93.70;;;3.90;99.90;;;;;;4129241;28;20049;-77
2021/11/03 03:24:24;;;;;;;412.13;79.03;;;3.90;99.90;;;;;;4128433;28;20089;-77
2021/11/03 03:26:24;;;;;;;477.35;85.53;;;3.90;99.90;;;;;;4136096;28;20088;-78
2021/11/03 03:28:25;;;;;;;372.73;76.63;;;3.90;99.90;;;;;;4137864;28;20058;-77
2021/11/03 03:30:26;;;;;;;443.85;83.55;;;3.90;99.90;;;;;;4129347;28;20367;-78
2021/11/03 03:32:27;;;;;;;436.90;82.90;;;3.90;99.90;;;;;;4128318;28;20062;-77
2021/11/03 03:34:28;;;;;;;332.80;71.47;;;3.80;99.90;;;;;;4129376;28;20505;-77
2021/11/03 03:36:29;;;;;;;351.17;78.78;;;3.80;99.90;;;;;;4128427;28;20079;-79
2021/11/03 03:38:30;;;;;;;453.42;85.93;;;3.80;99.90;;;;;;4129747;28;20348;-76
2021/11/03 03:40:31;;;;;;;551.63;94.53;;;3.80;99.90;;;;;;4126733;28;20081;-79
2021/11/03 03:42:32;;;;;;;678.20;114.38;;;3.80;99.90;;;;;;4129469;28;20041;-77
2021/11/03 03:44:33;;;;;;;463.40;87.70;;;3.80;99.90;;;;;;4125470;28;20030;-78
2021/11/03 03:46:34;;;;;;;459.48;82.53;;;3.80;99.90;;;;;;4128690;28;20030;-77
2021/11/03 03:48:34;;;;;;;522.63;92.38;;;3.90;99.90;;;;;;4128272;28;20039;-77
2021/11/03 03:50:36;;;;;;;412.75;79.80;;;3.90;99.90;;;;;;4120519;28;20636;-77
2021/11/03 03:52:37;;;;;;;525.35;94.32;;;3.90;99.90;;;;;;4118686;28;20043;-77
2021/11/03 03:54:38;;;;;;;514.25;92.97;;;4.00;99.90;;;;;;4130390;28;20030;-77
2021/11/03 03:56:38;;;;;;;492.80;91.07;;;4.00;99.90;;;;;;4130907;28;20566;-77
2021/11/03 03:58:40;;;;;;;452.70;85.78;;;4.10;99.90;;;;;;4132184;28;20113;-77
2021/11/03 04:00:41;;;;;;;453.20;86.13;;;4.10;99.90;;;;;;4125785;28;20471;-77
2021/11/03 04:02:43;;;;;;;565.28;98.30;;;4.10;99.90;;;;;;4133871;28;20034;-77
2021/11/03 04:04:44;;;;;;;490.47;86.43;;;4.20;99.90;;;;;;4131343;28;20026;-77
2021/11/03 04:06:44;;;;;;;264.75;62.63;;;4.20;99.90;;;;;;4131513;28;20278;-76
2021/11/03 04:08:45;;;;;;;501.40;86.57;;;4.10;99.90;;;;;;4131182;28;20121;-77
2021/11/03 04:10:46;;;;;;;379.40;78.13;;;4.10;99.90;;;;;;4130779;28;20435;-77
2021/11/03 04:12:47;;;;;;;383.35;73.65;;;4.10;99.90;;;;;;4131013;28;20088;-77
2021/11/03 04:14:48;;;;;;;467.15;86.22;;;4.00;99.90;;;;;;4132145;28;20038;-78
2021/11/03 04:16:49;;;;;;;398.33;77.57;;;4.00;99.90;;;;;;4129787;28;20057;-77
2021/11/03 04:18:49;;;;;;;357.92;74.18;;;4.00;99.90;;;;;;4131560;28;20058;-78
2021/11/03 04:20:50;;;;;;;382.75;76.53;;;3.90;99.90;;;;;;4131906;28;20049;-78
2021/11/03 04:22:51;;;;;;;404.45;79.50;;;3.90;99.90;;;;;;4130182;28;20034;-78
2021/11/03 04:24:52;;;;;;;430.48;81.80;;;4.00;99.90;;;;;;4125368;28;20100;-78
2021/11/03 04:26:52;;;;;;;456.65;81.60;;;3.90;99.90;;;;;;4131703;28;20045;-78
2021/11/03 04:28:53;;;;;;;499.35;94.75;;;3.90;99.90;;;;;;4125129;28;20034;-78
2021/11/03 04:30:54;;;;;;;400.40;78.78;;;3.90;99.90;;;;;;4119581;28;20045;-77
2021/11/03 04:32:55;;;;;;;486.73;89.47;;;3.90;99.90;;;;;;4131165;28;20093;-78
2021/11/03 04:34:56;;;;;;;534.20;91.75;;;3.90;99.90;;;;;;4127681;28;20069;-78
2021/11/03 04:36:56;;;;;;;383.38;78.07;;;3.90;99.90;;;;;;4131431;28;20041;-78
2021/11/03 04:39:00;;;;;;;380.25;78.47;;;3.90;99.90;;;;;;4128980;28;20042;-78
2021/11/03 04:41:00;;;;;;;492.77;90.55;;;3.90;99.90;;;;;;4130965;28;20030;-78
2021/11/03 04:43:01;;;;;;;501.20;89.82;;;4.00;99.90;;;;;;4129603;28;20113;-77
2021/11/03 04:45:03;;;;;;;465.40;89.03;;;4.00;99.90;;;;;;4130348;28;20030;-77
2021/11/03 04:47:04;;;;;;;396.67;80.78;;;4.00;99.90;;;;;;4125875;28;20034;-77
2021/11/03 04:49:05;;;;;;;443.20;83.78;;;4.00;99.90;;;;;;4125534;28;20130;-77
2021/11/03 04:51:05;;;;;;;542.47;98.28;;;4.00;99.90;;;;;;4128722;28;20050;-78
2021/11/03 04:53:06;;;;;;;569.63;102.70;;;4.00;99.90;;;;;;4128386;28;20101;-78
2021/11/03 04:55:08;;;;;;;536.38;99.32;;;4.00;99.90;;;;;;4128672;28;20518;-78
2021/11/03 04:57:14;;;;;;;525.90;98.15;;;4.00;99.90;;;;;;4131996;28;20665;-78
2021/11/03 04:59:16;;;;;;;419.23;81.05;;;4.00;99.90;;;;;;4130091;28;20065;-78
2021/11/03 05:01:20;;;;;;;501.65;94.45;;;3.90;99.90;;;;;;4115234;28;20026;-78
2021/11/03 05:03:21;;;;;;;522.28;91.70;;;4.00;99.90;;;;;;4127562;28;20042;-78
2021/11/03 05:05:22;;;;;;;459.02;87.90;;;3.90;99.90;;;;;;4129385;28;20023;-78
2021/11/03 05:07:23;;;;;;;489.50;85.97;;;3.90;99.90;;;;;;4131296;28;20035;-78
2021/11/03 05:09:24;;;;;;;443.60;84.65;;;3.80;99.90;;;;;;4129829;28;20046;-78
2021/11/03 05:11:25;;;;;;;399.55;79.10;;;3.80;99.90;;;;;;4119004;28;20038;-77
2021/11/03 05:13:25;;;;;;;555.65;94.93;;;3.80;99.90;;;;;;4125200;28;20889;-78
2021/11/03 05:15:26;;;;;;;456.73;86.13;;;3.80;99.90;;;;;;4130209;28;20390;-77
2021/11/03 05:17:26;;;;;;;488.77;88.85;;;3.80;99.90;;;;;;4129032;28;20541;-76
2021/11/03 05:19:29;;;;;;;393.58;79.32;;;3.80;99.90;;;;;;4117592;28;20038;-77
2021/11/03 05:21:32;;;;;;;483.27;87.78;;;3.80;99.90;;;;;;4132127;28;20034;-77
2021/11/03 05:23:33;;;;;;;547.00;99.55;;;3.80;99.90;;;;;;4112146;28;20150;-77
2021/11/03 05:25:34;;;;;;;485.60;89.15;;;3.70;99.90;;;;;;4129544;28;20035;-77
2021/11/03 05:27:36;;;;;;;612.03;101.97;;;3.70;99.90;;;;;;4132292;28;20375;-77
2021/11/03 05:29:36;;;;;;;516.17;92.40;;;3.70;99.90;;;;;;4145078;28;20030;-77
2021/11/03 05:31:37;;;;;;;497.40;91.20;;;3.70;99.90;;;;;;4129832;28;20183;-77
2021/11/03 05:33:37;;;;;;;541.35;92.72;;;3.70;99.90;;;;;;4129688;28;20460;-77
2021/11/03 05:35:38;;;;;;;477.73;89.82;;;3.70;99.90;;;;;;4130258;28;20506;-78
2021/11/03 05:37:39;;;;;;;473.38;85.45;;;3.60;99.90;;;;;;4129031;28;20085;-78
2021/11/03 05:39:40;;;;;;;518.78;90.88;;;3.60;99.90;;;;;;4114851;28;20031;-77
2021/11/03 05:41:41;;;;;;;395.15;79.05;;;3.60;99.90;;;;;;4125559;28;20038;-78
2021/11/03 05:43:42;;;;;;;477.05;90.63;;;3.60;99.90;;;;;;4128741;28;20061;-77
2021/11/03 05:45:43;;;;;;;465.13;89.50;;;3.70;99.90;;;;;;4129987;28;20045;-78
2021/11/03 05:47:44;;;;;;;495.38;92.63;;;3.70;99.90;;;;;;4129183;28;20113;-78
2021/11/03 05:49:45;;;;;;;435.95;87.95;;;3.70;99.90;;;;;;4117166;28;20030;-77
2021/11/03 05:51:47;;;;;;;470.08;88.50;;;3.60;99.90;;;;;;4128219;28;20092;-77
2021/11/03 05:53:47;;;;;;;549.28;95.07;;;3.60;99.90;;;;;;4128385;28;20130;-77
2021/11/03 05:55:48;;;;;;;467.35;85.60;;;3.60;99.90;;;;;;4125662;28;20534;-79
2021/11/03 05:57:49;;;;;;;366.05;74.25;;;3.60;99.90;;;;;;4118205;28;20457;-76
2021/11/03 05:59:50;;;;;;;384.00;80.13;;;3.60;99.90;;;;;;4121101;28;20638;-77
2021/11/03 06:01:52;;;;;;;423.90;83.55;;;3.60;99.90;;;;;;4122760;28;20042;-77
2021/11/03 06:03:53;;;;;;;428.35;84.85;;;3.50;99.90;;;;;;4128846;28;20081;-77
2021/11/03 06:05:53;;;;;;;450.90;85.50;;;3.50;99.90;;;;;;4128079;28;20490;-78
2021/11/03 06:07:57;;;;;;;477.02;92.50;;;3.40;99.90;;;;;;4129891;28;20041;-77
2021/11/03 06:09:59;;;;;;;412.30;79.78;;;3.30;99.90;;;;;;4143203;28;20050;-77
2021/11/03 06:12:00;;;;;;;475.75;87.07;;;3.30;99.90;;;;;;4128677;28;20038;-77
2021/11/03 06:14:01;;;;;;;525.28;93.95;;;3.30;99.90;;;;;;4126711;28;20042;-75
2021/11/03 06:16:02;;;;;;;430.23;81.60;;;3.30;99.90;;;;;;4125184;28;20042;-77
2021/11/03 06:18:03;;;;;;;435.55;80.63;;;3.30;99.90;;;;;;4113863;28;20031;-75
2021/11/03 06:20:04;;;;;;;479.33;90.90;;;3.30;99.90;;;;;;4120230;28;20044;-76
2021/11/03 06:22:05;;;;;;;495.92;90.95;;;3.30;99.90;;;;;;4114281;28;20074;-76
2021/11/03 06:24:05;;;;;;;470.00;83.60;;;3.30;99.90;;;;;;4126170;28;20038;-76
2021/11/03 06:26:06;;;;;;;526.47;89.63;;;3.30;99.90;;;;;;4125918;28;20077;-76
2021/11/03 06:28:07;;;;;;;434.27;82.20;;;3.30;99.90;;;;;;4118103;28;20480;-76
2021/11/03 06:30:10;;;;;;;448.15;82.78;;;3.30;99.90;;;;;;4123457;28;20034;-76
2021/11/03 06:32:11;;;;;;;545.30;92.00;;;3.30;99.90;;;;;;4127430;28;20670;-75
2021/11/03 06:34:11;;;;;;;501.20;84.95;;;3.30;99.90;;;;;;4126888;28;20113;-77
2021/11/03 06:36:13;;;;;;;543.60;90.75;;;3.30;99.90;;;;;;4115385;28;20061;-73
2021/11/03 06:38:15;;;;;;;470.63;83.35;;;3.30;99.90;;;;;;4128871;28;20030;-73
2021/11/03 06:40:18;;;;;;;471.80;85.05;;;3.30;99.90;;;;;;4129392;28;20042;-73
2021/11/03 06:42:19;;;;;;;;;;;3.30;99.90;;;;;;4120114;28;20030;-73
2021/11/03 06:44:19;;;;;;;499.55;83.22;;;3.30;99.90;;;;;;4124205;28;19913;-72
2021/11/03 06:46:20;;;;;;;418.23;76.97;;;3.30;99.90;;;;;;4115048;28;22408;-74
2021/11/03 06:48:21;;;;;;;476.40;87.20;;;3.30;99.90;;;;;;4127810;28;20411;-73
2021/11/03 06:50:26;;;;;;;437.20;82.88;;;3.30;99.90;;;;;;4128108;28;20037;-73
2021/11/03 06:52:27;;;;;;;447.10;84.15;;;3.40;99.90;;;;;;4128184;28;20046;-72
2021/11/03 06:54:28;;;;;;;566.67;97.88;;;3.40;99.90;;;;;;4126679;28;20034;-73
2021/11/03 06:56:28;;;;;;;465.40;85.05;;;3.30;99.90;;;;;;4144056;28;20053;-72
2021/11/03 06:58:29;;;;;;;431.40;78.80;;;3.30;99.90;;;;;;4126999;28;20381;-73
2021/11/03 07:00:34;;;;;;;443.60;80.30;;;3.40;99.90;;;;;;4128414;28;20650;-72
2021/11/03 07:02:34;;;;;;;504.38;89.43;;;3.40;99.90;;;;;;4117896;28;20043;-72
2021/11/03 07:04:35;;;;;;;390.45;80.85;;;3.40;99.90;;;;;;4121157;28;20459;-72
2021/11/03 07:06:36;;;;;;;472.45;88.03;;;3.40;99.90;;;;;;4127450;28;20387;-73
2021/11/03 07:08:37;;;;;;;502.50;92.60;;;3.40;99.90;;;;;;4122459;28;20027;-72
2021/11/03 07:10:41;;;;;;;463.17;91.10;;;3.40;99.90;;;;;;4112611;28;20430;-73
2021/11/03 07:12:41;;;;;;;434.88;79.38;;;3.30;99.90;;;;;;4126000;28;20096;-73
2021/11/03 07:14:42;;;;;;;364.27;77.68;;;3.30;99.90;;;;;;4125211;28;20046;-73
2021/11/03 07:16:42;;;;;;;555.58;99.68;;;3.30;99.90;;;;;;4126430;28;20030;-73
2021/11/03 07:18:43;;;;;;;420.52;84.13;;;3.20;99.90;;;;;;4127850;28;20065;-73
2021/11/03 07:20:45;;;;;;;540.38;96.60;;;3.20;99.90;;;;;;4127487;28;20034;-73
2021/11/03 07:22:46;;;;;;;540.63;98.75;;;3.20;99.90;;;;;;4127467;28;20041;-73
2021/11/03 07:24:47;;;;;;;536.53;98.55;;;3.20;99.90;;;;;;4127198;28;20018;-73
2021/11/03 07:26:47;;;;;;;505.05;95.45;;;3.20;99.90;;;;;;4126452;28;20053;-72
2021/11/03 07:28:48;;;;;;;465.30;88.45;;;3.20;99.90;;;;;;4130602;28;20030;-73
2021/11/03 07:30:49;;;;;;;375.98;73.68;;;3.20;99.90;;;;;;4131718;28;20050;-73
2021/11/03 07:32:50;;;;;;;484.17;90.75;;;3.30;99.90;;;;;;4130226;28;20038;-73
2021/11/03 07:34:51;;;;;;;471.10;86.63;;;3.30;99.90;;;;;;4129607;28;20122;-73
2021/11/03 07:36:51;;;;;;;441.67;84.60;;;3.30;99.90;;;;;;4129484;28;20492;-73
2021/11/03 07:38:52;;;;;;;445.20;81.32;;;3.30;99.90;;;;;;4132568;28;20057;-73
2021/11/03 07:40:55;;;;;;;503.90;95.18;;;3.30;99.90;;;;;;4129561;28;20194;-73
2021/11/03 07:43:00;;;;;;;429.23;83.15;;;3.30;99.90;;;;;;4130458;28;20043;-74
2021/11/03 07:45:00;;;;;;;538.95;97.80;;;3.30;99.90;;;;;;4130432;28;20074;-73
2021/11/03 07:47:01;;;;;;;524.40;96.00;;;3.40;99.90;;;;;;4131610;28;20518;-74
2021/11/03 07:49:03;;;;;;;505.33;95.55;;;3.40;99.90;;;;;;4130359;28;20030;-74
2021/11/03 07:51:08;;;;;;;421.98;88.97;;;3.30;99.90;;;;;;4127850;28;20030;-73
2021/11/03 07:53:10;;;;;;;394.60;79.88;;;3.40;99.90;;;;;;4129296;28;20489;-75
2021/11/03 07:55:11;;;;;;;471.75;93.13;;;3.40;99.90;;;;;;4126151;28;20696;-73
2021/11/03 07:57:12;;;;;;;514.10;99.43;;;3.50;99.90;;;;;;4118953;28;20045;-73
2021/11/03 07:59:16;;;;;;;419.77;87.90;;;3.50;99.90;;;;;;4130160;28;20061;-73
2021/11/03 08:01:16;;;;;;;471.67;92.03;;;3.50;99.90;;;;;;4129319;28;20038;-73
2021/11/03 08:03:17;;;;;;;489.33;94.38;;;3.50;99.90;;;;;;4129844;28;20034;-73
2021/11/03 08:05:18;;;;;;;536.50;97.03;;;3.60;99.90;;;;;;4131167;28;20062;-73
2021/11/03 08:07:19;;;;;;;466.40;92.43;;;3.60;99.90;;;;;;4130461;28;20053;-73
2021/11/03 08:09:20;;;;;;;482.40;94.13;;;3.60;99.90;;;;;;4127277;28;20041;-73
2021/11/03 08:11:21;;;;;;;517.33;100.63;;;3.60;99.90;;;;;;4130362;28;25936;-73
2021/11/03 08:13:26;;;;;;;455.92;87.53;;;3.70;99.90;;;;;;4131127;28;20056;-73
2021/11/03 08:15:27;;;;;;;500.17;94.47;;;3.70;99.90;;;;;;4131756;28;20035;-74
2021/11/03 08:17:27;;;;;;;515.50;94.90;;;3.70;99.90;;;;;;4131554;28;20031;-73
2021/11/03 08:19:38;;;;;;;560.80;101.38;;;3.80;99.90;;;;;;4130349;28;20034;-73
2021/11/03 08:21:39;;;;;;;532.63;100.20;;;3.80;99.90;;;;;;4124672;28;20022;-74
2021/11/03 08:23:40;;;;;;;541.53;102.07;;;3.80;99.90;;;;;;4131365;28;20038;-73
2021/11/03 08:25:42;;;;;;;491.10;96.47;;;3.80;99.90;;;;;;4130094;28;20030;-73
2021/11/03 08:27:43;;;;;;;596.60;107.97;;;3.90;99.90;;;;;;4129405;28;20525;-73
2021/11/03 08:29:45;;;;;;;494.17;96.13;;;3.90;99.90;;;;;;4126988;28;20034;-73
2021/11/03 08:31:46;;;;;;;493.92;98.30;;;4.00;99.90;;;;;;4130087;28;20133;-73
2021/11/03 08:33:47;;;;;;;492.27;94.70;;;4.20;99.90;;;;;;4131347;28;20061;-73
2021/11/03 08:35:51;;;;;;;490.17;98.07;;;4.30;99.90;;;;;;4130458;28;20034;-73
2021/11/03 08:37:54;;;;;;;584.72;108.70;;;4.30;99.90;;;;;;4128680;28;20038;-73
2021/11/03 08:39:58;;;;;;;344.67;74.13;;;4.40;99.90;;;;;;4126145;28;20047;-73
2021/11/03 08:41:59;;;;;;;607.10;109.65;;;4.50;99.90;;;;;;4130647;28;20105;-73
2021/11/03 08:44:00;;;;;;;462.75;94.55;;;4.50;99.90;;;;;;4130014;28;20046;-73
2021/11/03 08:46:00;;;;;;;448.38;91.78;;;4.40;99.90;;;;;;4129783;28;20041;-73
2021/11/03 08:48:02;;;;;;;543.15;104.90;;;4.40;99.90;;;;;;4129477;28;20061;-73
2021/11/03 08:50:05;;;;;;;483.58;95.97;;;4.40;99.90;;;;;;4128816;28;20027;-73
2021/11/03 08:52:06;;;;;;;500.13;99.82;;;4.30;99.90;;;;;;4129649;28;20592;-73
2021/11/03 08:54:08;;;;;;;604.70;112.57;;;4.20;99.90;;;;;;4129602;28;20364;-73
2021/11/03 08:56:08;;;;;;;474.08;96.07;;;4.20;99.90;;;;;;4128270;28;20387;-73
2021/11/03 08:58:12;;;;;;;416.75;85.88;;;4.20;99.90;;;;;;4130503;28;20041;-73
2021/11/03 09:00:20;;;;;;;;;;;4.20;99.90;;;;;;4131279;28;20038;-72
2021/11/03 09:02:22;;;;;;;252.05;58.90;;;4.30;99.90;;;;;;4131145;28;19920;-73
2021/11/03 09:04:23;;;;;;;454.00;91.25;;;4.40;99.90;;;;;;4128324;28;20042;-73
2021/11/03 09:06:24;;;;;;;428.58;89.00;;;4.50;99.90;;;;;;4123749;28;20117;-73
2021/11/03 09:08:24;;;;;;;347.33;76.90;;;4.60;99.90;;;;;;4129842;28;20043;-73
2021/11/03 09:10:26;;;;;;;414.02;92.70;;;4.80;99.90;;;;;;4128483;28;20793;-72
2021/11/03 09:12:27;;;;;;;472.50;93.68;;;4.90;99.90;;;;;;4128748;28;20034;-73
2021/11/03 09:14:27;;;;;;;382.63;84.32;;;5.00;99.90;;;;;;4127474;28;20034;-73
2021/11/03 09:16:28;;;;;;;457.35;91.82;;;5.10;99.90;;;;;;4129822;28;20117;-73
2021/11/03 09:18:30;;;;;;;477.33;95.70;;;5.10;99.90;;;;;;4126937;28;20402;-73
2021/11/03 09:20:30;;;;;;;488.05;93.93;;;5.10;99.90;;;;;;4127848;28;20070;-73
2021/11/03 09:22:33;;;;;;;507.00;92.75;;;5.00;99.90;;;;;;4127004;28;20065;-73
2021/11/03 09:24:36;;;;;;;585.47;110.47;;;4.90;99.90;;;;;;4130229;28;20416;-73
2021/11/03 09:26:37;;;;;;;474.77;91.53;;;4.80;99.90;;;;;;4129741;28;20253;-73
2021/11/03 09:28:39;;;;;;;537.83;100.30;;;4.80;99.90;;;;;;4129256;28;20360;-73
2021/11/03 09:30:41;;;;;;;528.97;102.07;;;4.80;99.90;;;;;;4128939;28;20513;-73
2021/11/03 09:32:44;;;;;;;503.48;94.18;;;4.70;99.90;;;;;;4128397;28;20042;-72
2021/11/03 09:34:46;;;;;;;446.00;89.72;;;4.70;99.90;;;;;;4129654;28;20109;-73
2021/11/03 09:36:50;;;;;;;582.20;107.60;;;4.70;99.90;;;;;;4127134;28;20038;-71
2021/11/03 09:38:52;;;;;;;535.63;98.00;;;4.70;99.90;;;;;;4142673;28;20689;-72
2021/11/03 09:40:54;;;;;;;597.90;108.90;;;4.70;99.90;;;;;;4130192;28;20038;-72
2021/11/03 09:42:55;;;;;;;678.55;116.53;;;4.70;99.90;;;;;;4128500;28;20509;-72
2021/11/03 09:44:57;;;;;;;643.72;111.32;;;4.70;99.90;;;;;;4128881;28;20124;-73
2021/11/03 09:47:17;;;;;;;536.15;95.43;;;4.80;99.90;;;;;;4127853;28;20065;-73
2021/11/03 09:49:24;;;;;;;670.90;115.25;;;4.80;99.90;;;;;;4124844;28;20034;-73
2021/11/03 09:51:28;;;;;;;477.25;92.25;;;4.80;99.90;;;;;;4127718;28;20798;-72
2021/11/03 09:53:37;;;;;;;517.97;95.35;;;4.80;99.90;;;;;;4132984;28;20053;-72
2021/11/03 09:55:39;;;;;;;547.83;97.63;;;4.90;99.90;;;;;;4139628;28;20102;-73
2021/11/03 09:58:17;;;;;;;570.55;103.30;;;5.10;99.90;;;;;;4129057;28;20027;-73
2021/11/03 10:00:42;;;;;;;567.50;102.72;;;5.10;99.90;;;;;;4132040;28;20573;-73
2021/11/03 10:02:47;;;;;;;566.17;103.25;;;5.10;99.90;;;;;;4138591;28;20093;-73
2021/11/03 10:05:04;;;;;;;590.08;109.25;;;5.30;99.90;;;;;;4129398;28;20038;-73
2021/11/03 10:07:30;;;;;;;545.47;106.35;;;5.40;99.90;;;;;;4127407;28;20706;-73
2021/11/03 10:09:30;;;;;;;598.80;115.97;;;5.70;99.90;;;;;;4129733;28;20029;-73
2021/11/03 10:11:39;;;;;;;501.98;101.50;;;5.80;99.90;;;;;;4128242;28;20031;-73
2021/11/03 10:13:40;;;;;;;534.97;105.30;;;6.00;99.90;;;;;;4128716;28;20034;-73
2021/11/03 10:15:59;;;;;;;605.50;115.93;;;6.10;99.90;;;;;;4126127;28;20058;-74
2021/11/03 10:18:12;;;;;;;313.55;71.68;;;6.10;99.90;;;;;;4122249;28;20035;-73